Flight Track Log - Related Links

Times and Time Zones

All times are in EDT time to prevent confusion due to time zone crossing. See the N2952Y flight status page for this flight to view local times or setup timezone preferences in your user account.

Time Position Orientation Groundspeed Altitude Reporting Facility
EDT Latitude Longitude Course Direction KTS MPH feet Rate Location/Type
Tue 10:28:26 PM 39.9439 -77.6450 272° West 120 138 8,000  Level Cleveland Center
Tue 10:28:56 PM 39.9444 -77.6667 272° West 121 139 8,000  Level Cleveland Center
Tue 10:29:57 PM 39.9433 -77.7100 268° West 121 139 8,000  Level Cleveland Center
Tue 10:30:58 PM 39.9422 -77.7533 268° West 120 138 8,000 50 Level Cleveland Center
Tue 10:31:58 PM 39.9414 -77.7994 269° West 120 138 8,100 100 Climbing Cleveland Center
Tue 10:33:00 PM 39.9502 -77.8346 288° West  Level Estimated
Tue 10:40:00 PM 40.0096 -78.0733 288° West  Level Estimated
Tue 10:41:00 PM 40.0180 -78.1074 288° West  Level Estimated
Tue 10:42:00 PM 40.0265 -78.1416 288° West  Level Estimated
Tue 10:43:00 PM 40.0349 -78.1757 288° West  Level Estimated
Tue 10:44:00 PM 40.0433 -78.2099 288° West  Level Estimated
Tue 10:45:00 PM 40.0517 -78.2440 288° West  Level Estimated
Tue 10:46:00 PM 40.0601 -78.2782 288° West  Level Estimated
Tue 10:47:00 PM 40.0685 -78.3124 288° West  Level Estimated
Tue 10:48:00 PM 40.0768 -78.3466 288° West  Level Estimated
Tue 10:49:00 PM 40.0852 -78.3808 288° West  Level Estimated
Tue 10:50:00 PM 40.0935 -78.4150 288° West  Level Estimated
Tue 10:51:00 PM 40.1019 -78.4492 288° West  Level Estimated
Tue 10:52:00 PM 40.1102 -78.4834 288° West  Level Estimated
Tue 10:53:00 PM 40.1185 -78.5176 288° West  Level Estimated
Tue 10:54:00 PM 40.1268 -78.5519 288° West  Level Estimated
Tue 10:55:00 PM 40.1351 -78.5861 288° West  Level Estimated
Tue 10:56:00 PM 40.1434 -78.6204 288° West  Level Estimated
Tue 10:57:00 PM 40.1517 -78.6546 288° West  Level Estimated
Tue 10:58:00 PM 40.1600 -78.6889 288° West  Level Estimated
Tue 10:59:00 PM 40.1682 -78.7232 288° West  Level Estimated
Tue 11:00:00 PM 40.1765 -78.7575 287° West  Level Estimated
Tue 11:01:00 PM 40.1847 -78.7918 287° West  Level Estimated
Tue 11:02:00 PM 40.1930 -78.8261 287° West  Level Estimated
Tue 11:03:00 PM 40.2012 -78.8604 287° West  Level Estimated
Tue 11:04:00 PM 40.2094 -78.8947 287° West  Level Estimated
Tue 11:05:00 PM 40.2176 -78.9290 287° West  Level Estimated
Tue 11:06:00 PM 40.2258 -78.9634 287° West  Level Estimated
Tue 11:07:00 PM 40.2340 -78.9977 287° West  Level Estimated
Tue 11:08:00 PM 40.2421 -79.0321 287° West  Level Estimated
Tue 11:09:00 PM 40.2503 -79.0664 287° West  Level Estimated
Tue 11:10:00 PM 40.2584 -79.1008 287° West  Level Estimated
Tue 11:11:00 PM 40.2666 -79.1352 287° West  Level Estimated
Tue 11:12:00 PM 40.2747 -79.1696 287° West  Level Estimated
Tue 11:13:00 PM 40.2828 -79.2039 287° West  Level Estimated
Tue 11:14:00 PM 40.2909 -79.2383 287° West  Level Estimated
Tue 11:15:00 PM 40.2990 -79.2728 287° West  Level Estimated
Tue 11:16:00 PM 40.3071 -79.3072 287° West  Level Estimated
Tue 11:17:00 PM 40.3152 -79.3416 287° West  Level Estimated
Tue 11:18:00 PM 40.3233 -79.3761 287° West  Level Estimated
Tue 11:19:00 PM 40.3313 -79.4105 287° West  Level Estimated
Tue 11:20:00 PM 40.3394 -79.4449 287° West  Level Estimated
Tue 11:21:00 PM 40.3474 -79.4794 287° West  Level Estimated
Tue 11:22:00 PM 40.3554 -79.5139 287° West  Level Estimated
Tue 11:23:00 PM 40.3635 -79.5483 287° West  Level Estimated
Tue 11:24:00 PM 40.3715 -79.5828 287° West  Level Estimated
Tue 11:25:00 PM 40.3795 -79.6173 287° West  Level Estimated
Tue 11:26:00 PM 40.3875 -79.6518 287° West  Level Estimated
Tue 11:27:00 PM 40.3955 -79.6863 287° West  Level Estimated
Tue 11:28:00 PM 40.4034 -79.7209 287° West  Level Estimated
Tue 11:29:00 PM 40.4114 -79.7554 287° West  Level Estimated
Tue 11:30:00 PM 40.4193 -79.7899 287° West  Level Estimated
Tue 11:31:00 PM 40.4273 -79.8245 287° West  Level Estimated
Tue 11:32:00 PM 40.4352 -79.8590 287° West  Level Estimated
Tue 11:33:00 PM 40.4431 -79.8936 287° West  Level Estimated
Tue 11:34:00 PM 40.4510 -79.9281 287° West  Level Estimated
Tue 11:35:00 PM 40.4589 -79.9627 287° West  Level Estimated
Tue 11:36:00 PM 40.4668 -79.9973 287° West  Level Estimated
Tue 11:37:00 PM 40.4747 -80.0319 287° West  Level Estimated
Tue 11:38:00 PM 40.4825 -80.0665 287° West  Level Estimated
Tue 11:39:00 PM 40.4904 -80.1011 287° West  Level Estimated
Tue 11:40:00 PM 40.4982 -80.1357 287° West  Level Estimated
Tue 11:41:00 PM 40.5061 -80.1703 287° West  Level Estimated
Tue 11:42:00 PM 40.5139 -80.2050 287° West  Level Estimated
Tue 11:43:00 PM 40.5217 -80.2396 287° West  Level Estimated
Tue 11:44:00 PM 40.5295 -80.2743 287° West  Level Estimated
Tue 11:45:00 PM 40.5373 -80.3089 286° West  Level Estimated
Tue 11:46:00 PM 40.5451 -80.3436 286° West  Level Estimated
Tue 11:47:00 PM 40.5528 -80.3783 286° West  Level Estimated
Tue 11:48:00 PM 40.5606 -80.4129 286° West  Level Estimated
Tue 11:49:00 PM 40.5683 -80.4476 286° West  Level Estimated
Tue 11:50:00 PM 40.5761 -80.4823 286° West  Level Estimated
Tue 11:51:00 PM 40.5838 -80.5170 286° West  Level Estimated
Tue 11:52:00 PM 40.5915 -80.5517 286° West  Level Estimated
Tue 11:53:00 PM 40.5992 -80.5864 286° West  Level Estimated
Tue 11:54:00 PM 40.6069 -80.6212 286° West  Level Estimated
Tue 11:55:00 PM 40.6146 -80.6559 286° West  Level Estimated
Tue 11:56:00 PM 40.6223 -80.6907 286° West  Level Estimated
Tue 11:57:00 PM 40.6300 -80.7254 286° West  Level Estimated
Tue 11:58:00 PM 40.6376 -80.7602 286° West  Level Estimated
Tue 11:59:00 PM 40.6453 -80.7949 286° West  Level Estimated
Wed 12:00:00 AM 40.6529 -80.8297 286° West  Level Estimated
Wed 12:01:00 AM 40.6606 -80.8645 286° West  Level Estimated
Wed 12:02:00 AM 40.6682 -80.8993 286° West  Level Estimated
Wed 12:03:00 AM 40.6758 -80.9341 286° West  Level Estimated
Wed 12:04:00 AM 40.6834 -80.9689 286° West  Level Estimated
Wed 12:05:00 AM 40.6909 -81.0037 286° West  Level Estimated
Wed 12:06:00 AM 40.6985 -81.0385 286° West  Level Estimated
Wed 12:07:00 AM 40.7061 -81.0734 286° West  Level Estimated
Wed 12:08:00 AM 40.7136 -81.1082 286° West  Level Estimated
Wed 12:09:00 AM 40.7212 -81.1431 286° West  Level Estimated
Wed 12:10:00 AM 40.7287 -81.1779 286° West  Level Estimated
Wed 12:11:00 AM 40.7362 -81.2128 286° West  Level Estimated
Wed 12:12:00 AM 40.7437 -81.2477 286° West  Level Estimated
Wed 12:13:00 AM 40.7512 -81.2825 286° West  Level Estimated
Wed 12:14:00 AM 40.7587 -81.3174 286° West  Level Estimated
Wed 12:15:00 AM 40.7662 -81.3523 286° West  Level Estimated
Wed 12:16:00 AM 40.7737 -81.3872 286° West  Level Estimated
Wed 12:17:00 AM 40.7811 -81.4221 286° West  Level Estimated
Wed 12:18:00 AM 40.7886 -81.4570 286° West  Level Estimated
Wed 12:19:00 AM 40.7960 -81.4920 286° West  Level Estimated
Wed 12:20:00 AM 40.8035 -81.5269 286° West  Level Estimated
Wed 12:21:00 AM 40.8109 -81.5618 286° West  Level Estimated
Wed 12:22:00 AM 40.8183 -81.5968 286° West  Level Estimated
Wed 12:23:00 AM 40.8257 -81.6318 286° West  Level Estimated
Wed 12:24:00 AM 40.8330 -81.6667 286° West  Level Estimated
Wed 12:25:00 AM 40.8404 -81.7017 286° West  Level Estimated
Wed 12:26:00 AM 40.8478 -81.7367 286° West  Level Estimated
Wed 12:27:00 AM 40.8551 -81.7717 286° West  Level Estimated
Wed 12:28:00 AM 40.8625 -81.8067 286° West  Level Estimated
Wed 12:29:00 AM 40.8698 -81.8417 285° West  Level Estimated
Wed 12:30:00 AM 40.8771 -81.8767 285° West  Level Estimated
Wed 12:31:00 AM 40.8844 -81.9117 285° West  Level Estimated
Wed 12:32:00 AM 40.8917 -81.9467 285° West  Level Estimated
Wed 12:33:00 AM 40.8990 -81.9818 285° West  Level Estimated
Wed 12:34:00 AM 40.9063 -82.0168 285° West  Level Estimated
Wed 12:35:00 AM 40.9136 -82.0518 285° West  Level Estimated
Wed 12:36:00 AM 40.9208 -82.0869 285° West  Level Estimated
Wed 12:37:00 AM 40.9281 -82.1220 285° West  Level Estimated
Wed 12:38:00 AM 40.9353 -82.1571 285° West  Level Estimated
Wed 12:39:00 AM 40.9426 -82.1921 285° West  Level Estimated
Wed 12:40:00 AM 40.9498 -82.2272 285° West  Level Estimated
Wed 12:41:00 AM 40.9570 -82.2623 285° West  Level Estimated
Wed 12:42:00 AM 40.9641 -82.2974 285° West  Level Estimated
Wed 12:43:00 AM 40.9713 -82.3325 285° West  Level Estimated
Wed 12:44:00 AM 40.9785 -82.3677 285° West  Level Estimated
Wed 12:45:00 AM 40.9857 -82.4028 285° West  Level Estimated
Wed 12:46:00 AM 40.9928 -82.4379 285° West  Level Estimated
Wed 12:47:00 AM 41.0000 -82.4731 285° West  Level Estimated
Wed 12:48:00 AM 41.0071 -82.5082 285° West  Level Estimated
Wed 12:49:00 AM 41.0142 -82.5434 285° West  Level Estimated
Wed 12:50:00 AM 41.0213 -82.5785 285° West  Level Estimated
Wed 12:51:00 AM 41.0284 -82.6137 285° West  Level Estimated
Wed 12:52:00 AM 41.0355 -82.6489 285° West  Level Estimated
Wed 12:53:00 AM 41.0426 -82.6841 285° West  Level Estimated
Wed 12:54:00 AM 41.0496 -82.7193 285° West  Level Estimated
Wed 12:55:00 AM 41.0567 -82.7545 285° West  Level Estimated
Wed 12:56:00 AM 41.0637 -82.7897 285° West  Level Estimated
Wed 12:57:00 AM 41.0708 -82.8249 285° West  Level Estimated
Wed 12:58:00 AM 41.0778 -82.8601 285° West  Level Estimated
Wed 12:59:00 AM 41.0848 -82.8954 285° West  Level Estimated
Wed 01:00:00 AM 41.0918 -82.9306 285° West  Level Estimated
Wed 01:01:00 AM 41.0988 -82.9659 285° West  Level Estimated
Wed 01:02:00 AM 41.1058 -83.0011 285° West  Level Estimated
Wed 01:03:00 AM 41.1127 -83.0364 285° West  Level Estimated
Wed 01:04:00 AM 41.1197 -83.0716 285° West  Level Estimated
Wed 01:05:00 AM 41.1267 -83.1069 285° West  Level Estimated
Wed 01:06:00 AM 41.1336 -83.1422 285° West  Level Estimated
Wed 01:07:00 AM 41.1405 -83.1775 285° West  Level Estimated
Wed 01:08:00 AM 41.1474 -83.2128 285° West  Level Estimated
Wed 01:09:00 AM 41.1543 -83.2481 285° West  Level Estimated
Wed 01:10:00 AM 41.1612 -83.2834 285° West  Level Estimated
Wed 01:11:00 AM 41.1681 -83.3187 285° West  Level Estimated
Wed 01:12:00 AM 41.1750 -83.3541 284° West  Level Estimated
Wed 01:13:00 AM 41.1818 -83.3894 284° West  Level Estimated
Wed 01:14:00 AM 41.1887 -83.4248 284° West  Level Estimated
Wed 01:15:00 AM 41.1955 -83.4601 284° West  Level Estimated
Wed 01:16:00 AM 41.2024 -83.4955 284° West  Level Estimated
Wed 01:17:00 AM 41.2092 -83.5308 284° West  Level Estimated
Wed 01:18:00 AM 41.2160 -83.5662 284° West  Level Estimated
Wed 01:19:00 AM 41.2228 -83.6016 284° West  Level Estimated
Wed 01:20:00 AM 41.2296 -83.6370 284° West  Level Estimated
Wed 01:21:00 AM 41.2363 -83.6724 284° West  Level Estimated
Wed 01:22:00 AM 41.2431 -83.7078 284° West  Level Estimated
Wed 01:23:00 AM 41.2499 -83.7432 284° West  Level Estimated
Wed 01:24:00 AM 41.2566 -83.7786 284° West  Level Estimated
Wed 01:25:00 AM 41.2633 -83.8140 284° West  Level Estimated
Wed 01:26:00 AM 41.2700 -83.8495 284° West  Level Estimated
Wed 01:27:00 AM 41.2767 -83.8849 284° West  Level Estimated
Wed 01:28:00 AM 41.2835 -83.9204 284° West  Level Estimated
Wed 01:29:00 AM 41.2901 -83.9558 284° West  Level Estimated
Wed 01:30:00 AM 41.2968 -83.9913 284° West  Level Estimated
Wed 01:31:00 AM 41.3035 -84.0267 284° West  Level Estimated
Wed 01:32:00 AM 41.3101 -84.0622 284° West  Level Estimated
Wed 01:33:00 AM 41.3168 -84.0977 284° West  Level Estimated
Wed 01:34:00 AM 41.3234 -84.1332 284° West  Level Estimated
Wed 01:35:00 AM 41.3300 -84.1687 284° West  Level Estimated
Wed 01:36:00 AM 41.3366 -84.2042 284° West  Level Estimated
Wed 01:37:00 AM 41.3432 -84.2397 284° West  Level Estimated
Wed 01:38:00 AM 41.3498 -84.2752 284° West  Level Estimated
Wed 01:39:00 AM 41.3564 -84.3108 284° West  Level Estimated
Wed 01:40:00 AM 41.3630 -84.3463 284° West  Level Estimated
Wed 01:41:00 AM 41.3695 -84.3818 284° West  Level Estimated
Wed 01:42:00 AM 41.3761 -84.4174 284° West  Level Estimated
Wed 01:43:00 AM 41.3826 -84.4529 284° West  Level Estimated
Wed 01:44:00 AM 41.3891 -84.4885 284° West  Level Estimated
Wed 01:45:00 AM 41.3956 -84.5241 284° West  Level Estimated
Wed 01:46:00 AM 41.4021 -84.5596 284° West  Level Estimated
Wed 01:47:00 AM 41.4086 -84.5952 284° West  Level Estimated
Wed 01:48:00 AM 41.4151 -84.6308 284° West  Level Estimated
Wed 01:49:00 AM 41.4216 -84.6664 284° West  Level Estimated
Wed 01:50:00 AM 41.4281 -84.7020 284° West  Level Estimated
Wed 01:51:00 AM 41.4345 -84.7376 284° West  Level Estimated
Wed 01:52:00 AM 41.4409 -84.7733 284° West  Level Estimated
Wed 01:53:00 AM 41.4474 -84.8089 284° West  Level Estimated
Wed 01:54:00 AM 41.4538 -84.8445 284° West  Level Estimated
Wed 01:55:00 AM 41.4602 -84.8802 283° West  Level Estimated
Wed 01:56:00 AM 41.4666 -84.9158 283° West  Level Estimated
Wed 01:57:00 AM 41.4729 -84.9515 283° West  Level Estimated
Wed 01:58:00 AM 41.4793 -84.9871 283° West  Level Estimated
Wed 01:59:00 AM 41.4857 -85.0228 283° West  Level Estimated
Wed 02:00:00 AM 41.4920 -85.0585 283° West  Level Estimated
Wed 02:01:00 AM 41.4984 -85.0941 283° West  Level Estimated
Wed 02:02:00 AM 41.5047 -85.1298 283° West  Level Estimated
Wed 02:03:00 AM 41.5110 -85.1655 283° West  Level Estimated
Wed 02:04:00 AM 41.5173 -85.2012 283° West  Level Estimated
Wed 02:05:00 AM 41.5236 -85.2370 283° West  Level Estimated
Wed 02:06:00 AM 41.5299 -85.2727 283° West  Level Estimated
Wed 02:07:00 AM 41.5362 -85.3084 283° West  Level Estimated
Wed 02:08:00 AM 41.5424 -85.3441 283° West  Level Estimated
Wed 02:09:00 AM 41.5487 -85.3799 283° West  Level Estimated
Wed 02:10:00 AM 41.5549 -85.4156 283° West  Level Estimated
Wed 02:11:00 AM 41.5611 -85.4514 283° West  Level Estimated
Wed 02:12:00 AM 41.5674 -85.4871 283° West  Level Estimated
Wed 02:13:00 AM 41.5736 -85.5229 283° West  Level Estimated
Wed 02:14:00 AM 41.5798 -85.5587 283° West  Level Estimated
Wed 02:15:00 AM 41.5859 -85.5944 283° West  Level Estimated
Wed 02:16:00 AM 41.5921 -85.6302 283° West  Level Estimated
Wed 02:17:00 AM 41.5983 -85.6660 283° West  Level Estimated
Wed 02:18:00 AM 41.6044 -85.7018 283° West  Level Estimated
Wed 02:19:00 AM 41.6105 -85.7376 283° West  Level Estimated
Wed 02:20:00 AM 41.6167 -85.7734 283° West  Level Estimated
Wed 02:21:00 AM 41.6228 -85.8093 283° West  Level Estimated
Wed 02:22:00 AM 41.6289 -85.8451 283° West  Level Estimated
Wed 02:23:00 AM 41.6350 -85.8809 283° West  Level Estimated
Wed 02:24:00 AM 41.6411 -85.9168 283° West  Level Estimated
Wed 02:25:00 AM 41.6471 -85.9526 283° West  Level Estimated

Login

Don't have an account? Register now (free) for customized features, flight alerts, and more!